Akeeva — WDE7272 — position and weather

sailwx.info

Track history (hours):
 
Tides and Currents Weather Stations Pressure Air Temp Water Temp Dewpoint Dewpoint Depression Visibility Wind Speed Wind Dir Waves Ship Positions

Akeeva

More information available from US FCC via Universal Licensing System and Coast Guard Vessel Documentation Center.

Last reported at 2014-Aug-02 05:32 UTC. Time now 2014-Aug-02 06:31 UTC.
Position N 48°35' W 122°56'.

Length 16 m.

Type: Pleasure craft. MMSI: 367391170.

Date/timePositionNaut miles runAvg speedWind from/ knotsBaromVisibWave heightAir tempDewpointWater temp
2014-Aug-02 05:32N 48°35' W 122°56'0 0.0
2014-Aug-02 04:26N 48°35' W 122°56'0 0.0
2014-Aug-02 03:23N 48°35' W 122°56'0 0.0
2014-Aug-02 02:26N 48°35' W 122°56'0 0.0
2014-Aug-01 07:28N 48°35' W 122°56'0 0.0
2014-Aug-01 06:25N 48°35' W 122°56'0 0.0
2014-Aug-01 05:16N 48°35' W 122°56'0 0.0
2014-Jul-30 20:24N 48°35' W 122°56'5 5.3
2014-Jul-30 19:33N 48°30' W 122°57'39 2.2
2014-Jul-30 01:23N 47°55' W 122°32'5 7.8
2014-Jul-30 00:47N 47°51' W 122°27'2 8.6
2014-Jul-30 00:33N 47°49' W 122°26'0 7.0
2014-Jul-30 00:32N 47°49' W 122°26'8 8.7
2014-Jul-29 23:33N 47°41' W 122°24'0 0.3
2014-Jul-29 23:32N 47°41' W 122°24'0 0.1
2014-Jul-29 22:26N 47°41' W 122°24'0 0.0
2014-Jul-29 22:26N 47°41' W 122°24'0 0.0
2014-Jul-29 21:23N 47°41' W 122°24'0 0.0
2014-Jul-29 20:23N 47°41' W 122°24'0 0.0
2014-Jul-29 19:35N 47°41' W 122°24'0 0.0
2014-Jul-29 19:32N 47°41' W 122°24'0 0.0
2014-Jul-29 19:05N 47°41' W 122°24'0 0.0
2014-Jul-29 18:32N 47°41' W 122°24'0 0.0
2014-Jul-29 18:05N 47°41' W 122°24'0 0.0
2014-Jul-29 17:29N 47°41' W 122°24'0 0.0
2014-Jul-29 17:29N 47°41' W 122°24'0 0.0
2014-Jul-29 15:11N 47°41' W 122°24'0 0.0
2014-Jul-29 14:32N 47°41' W 122°24'0 0.0
2014-Jul-29 14:29N 47°41' W 122°24'  
Track history (hours):
 
Tides and Currents Weather Stations Pressure Air Temp Water Temp Dewpoint Dewpoint Depression Visibility Wind Speed Wind Dir Waves Ship Positions

Akeeva

More information available from US FCC via Universal Licensing System and Coast Guard Vessel Documentation Center.

Last reported at 2014-Aug-02 05:32 UTC. Time now 2014-Aug-02 06:31 UTC.
Position N 48°35' W 122°56'.

Length 16 m.

Type: Pleasure craft. MMSI: 367391170.

Date/timePositionNaut miles runAvg speedWind from/ knotsBaromVisibWave heightAir tempDewpointWater temp
2014-Aug-02 05:32N 48°35' W 122°56'0 0.0
2014-Aug-02 04:26N 48°35' W 122°56'0 0.0
2014-Aug-02 03:23N 48°35' W 122°56'0 0.0
2014-Aug-02 02:26N 48°35' W 122°56'0 0.0
2014-Aug-01 07:28N 48°35' W 122°56'0 0.0
2014-Aug-01 06:25N 48°35' W 122°56'0 0.0
2014-Aug-01 05:16N 48°35' W 122°56'0 0.0
2014-Jul-30 20:24N 48°35' W 122°56'5 5.3
2014-Jul-30 19:33N 48°30' W 122°57'39 2.2
2014-Jul-30 01:23N 47°55' W 122°32'5 7.8
2014-Jul-30 00:47N 47°51' W 122°27'2 8.6
2014-Jul-30 00:33N 47°49' W 122°26'0 7.0
2014-Jul-30 00:32N 47°49' W 122°26'8 8.7
2014-Jul-29 23:33N 47°41' W 122°24'0 0.3
2014-Jul-29 23:32N 47°41' W 122°24'0 0.1
2014-Jul-29 22:26N 47°41' W 122°24'0 0.0
2014-Jul-29 22:26N 47°41' W 122°24'0 0.0
2014-Jul-29 21:23N 47°41' W 122°24'0 0.0
2014-Jul-29 20:23N 47°41' W 122°24'0 0.0
2014-Jul-29 19:35N 47°41' W 122°24'0 0.0
2014-Jul-29 19:32N 47°41' W 122°24'0 0.0
2014-Jul-29 19:05N 47°41' W 122°24'0 0.0
2014-Jul-29 18:32N 47°41' W 122°24'0 0.0
2014-Jul-29 18:05N 47°41' W 122°24'0 0.0
2014-Jul-29 17:29N 47°41' W 122°24'0 0.0
2014-Jul-29 17:29N 47°41' W 122°24'0 0.0
2014-Jul-29 15:11N 47°41' W 122°24'0 0.0
2014-Jul-29 14:32N 47°41' W 122°24'0 0.0
2014-Jul-29 14:29N 47°41' W 122°24'  

Dump ship's entire track history